Time;durP1;ratioP1;P1;durP2;ratioP2;P2;SDS_P1;SDS_P2;PMS_P1;PMS_P2;Temp;Humidity;BMP_temperature;BMP_pressure;BME280_temperature;BME280_humidity;BME280_pressure;Samples;Min_cycle;Max_cycle;Signal;HPM_P1;HPM_P2
2023/06/09 00:02:25;;;;;;;0.45;0.30;;;10.50;98.10;;;;;;4939565;28;20061;-65
2023/06/09 00:04:53;;;;;;;0.55;0.50;;;10.50;97.80;;;;;;4937645;28;20568;-67
2023/06/09 00:07:20;;;;;;;1.20;0.70;;;10.50;98.00;;;;;;4941566;28;20082;-67
2023/06/09 00:09:47;;;;;;;2.15;0.95;;;10.50;98.20;;;;;;4938245;28;20129;-69
2023/06/09 00:12:14;;;;;;;0.43;0.43;;;10.40;98.00;;;;;;4939113;28;20174;-62
2023/06/09 00:14:41;;;;;;;1.02;0.65;;;10.50;97.80;;;;;;4938637;28;20516;-69
2023/06/09 00:17:08;;;;;;;2.40;0.50;;;10.40;97.90;;;;;;4936886;28;20423;-63
2023/06/09 00:19:36;;;;;;;1.70;0.55;;;10.50;97.90;;;;;;4935482;28;20106;-66
2023/06/09 00:22:05;;;;;;;2.70;0.82;;;10.50;97.90;;;;;;4933521;28;20808;-64
2023/06/09 00:24:32;;;;;;;0.80;0.50;;;10.40;98.00;;;;;;4941260;28;20178;-64
2023/06/09 00:26:59;;;;;;;2.30;0.75;;;10.50;98.20;;;;;;4939206;28;20055;-64
2023/06/09 00:29:26;;;;;;;1.85;0.68;;;10.50;98.10;;;;;;4938650;28;20083;-66
2023/06/09 00:31:52;;;;;;;1.50;0.90;;;10.50;98.30;;;;;;4937141;28;20124;-62
2023/06/09 00:34:19;;;;;;;1.30;0.90;;;10.50;98.40;;;;;;4938263;28;20063;-70
2023/06/09 00:36:47;;;;;;;3.05;0.88;;;10.50;98.50;;;;;;4936427;28;20061;-69
2023/06/09 00:39:14;;;;;;;1.27;0.90;;;10.50;98.50;;;;;;4940832;28;20170;-62
2023/06/09 00:41:41;;;;;;;1.85;1.13;;;10.50;98.40;;;;;;4937605;28;20055;-68
2023/06/09 00:44:09;;;;;;;1.33;0.55;;;10.40;98.60;;;;;;4942382;28;20046;-68
2023/06/09 00:46:37;;;;;;;4.32;0.70;;;10.40;98.60;;;;;;4938066;28;20111;-62
2023/06/09 00:49:05;;;;;;;1.13;0.70;;;10.40;99.00;;;;;;4934042;28;20362;-68
2023/06/09 00:51:34;;;;;;;1.85;0.63;;;10.40;99.20;;;;;;4930436;28;20801;-74
2023/06/09 00:54:02;;;;;;;2.30;0.80;;;10.40;99.00;;;;;;4934340;28;20164;-64
2023/06/09 00:56:31;;;;;;;6.18;0.88;;;10.40;99.40;;;;;;4938842;28;20050;-63
2023/06/09 00:58:59;;;;;;;2.50;1.38;;;10.40;99.50;;;;;;4950784;28;20142;-68
2023/06/09 01:01:28;;;;;;;1.60;0.68;;;10.40;99.50;;;;;;4941283;28;20047;-62
2023/06/09 01:03:58;;;;;;;1.42;0.95;;;10.30;99.80;;;;;;4946471;28;20134;-65
2023/06/09 01:06:56;;;;;;;1.13;0.70;;;10.40;99.90;;;;;;4952754;28;20053;-69
2023/06/09 01:09:45;;;;;;;2.55;0.80;;;10.30;99.90;;;;;;4945693;28;20557;-69
2023/06/09 01:12:33;;;;;;;4.07;0.80;;;10.30;99.90;;;;;;4939296;28;20068;-63
2023/06/09 01:15:06;;;;;;;5.10;0.70;;;10.30;99.90;;;;;;4942827;28;20109;-64
2023/06/09 01:17:37;;;;;;;1.70;0.50;;;10.30;99.90;;;;;;4942536;28;20055;-64
2023/06/09 01:20:07;;;;;;;1.65;0.63;;;10.30;99.90;;;;;;4940392;28;20466;-65
2023/06/09 01:23:04;;;;;;;3.00;0.88;;;10.30;99.90;;;;;;4937183;28;20046;-73
2023/06/09 01:25:41;;;;;;;1.20;0.88;;;10.30;99.90;;;;;;4935774;28;20124;-64
2023/06/09 01:28:20;;;;;;;1.25;0.70;;;10.20;99.90;;;;;;4958707;28;20055;-62
2023/06/09 01:30:49;;;;;;;1.25;0.98;;;10.20;99.90;;;;;;4938072;28;20209;-65
2023/06/09 01:33:19;;;;;;;0.98;0.63;;;10.20;99.90;;;;;;4943127;28;20056;-68
2023/06/09 01:35:46;;;;;;;1.27;0.47;;;10.10;99.90;;;;;;4945447;28;20137;-66
2023/06/09 01:38:19;;;;;;;2.25;1.25;;;10.20;99.90;;;;;;4941033;29;20054;-63
2023/06/09 01:40:47;;;;;;;1.98;0.70;;;10.20;99.90;;;;;;4943966;28;20079;-63
2023/06/09 01:43:15;;;;;;;0.55;0.47;;;10.10;99.90;;;;;;4943863;28;20481;-63
2023/06/09 01:45:42;;;;;;;0.80;0.73;;;10.10;99.90;;;;;;4942261;28;20115;-64
2023/06/09 01:48:22;;;;;;;0.77;0.70;;;10.10;99.90;;;;;;4936341;28;20087;-64
2023/06/09 01:51:06;;;;;;;0.85;0.57;;;10.10;99.90;;;;;;4939384;28;20436;-66
2023/06/09 01:53:36;;;;;;;1.25;0.93;;;10.00;99.90;;;;;;4935772;28;20105;-68
2023/06/09 01:56:11;;;;;;;0.93;0.50;;;10.00;99.90;;;;;;4950824;28;20114;-66
2023/06/09 01:58:43;;;;;;;0.95;0.70;;;10.00;99.90;;;;;;4954641;28;20058;-68
2023/06/09 02:01:15;;;;;;;2.28;0.90;;;10.00;99.90;;;;;;4943061;28;20043;-65
2023/06/09 02:03:44;;;;;;;2.63;1.50;;;10.00;99.90;;;;;;4963512;28;20143;-64
2023/06/09 02:06:12;;;;;;;2.53;0.80;;;10.00;99.90;;;;;;4957088;28;20051;-65
2023/06/09 02:08:39;;;;;;;1.05;0.50;;;10.00;99.90;;;;;;4948011;28;20067;-69
2023/06/09 02:11:10;;;;;;;1.35;0.70;;;10.00;99.90;;;;;;4946765;28;20138;-63
2023/06/09 02:13:37;;;;;;;1.27;0.88;;;10.00;99.90;;;;;;4940163;28;20632;-65
2023/06/09 02:16:04;;;;;;;2.38;0.80;;;10.00;99.90;;;;;;4937700;28;20051;-62
2023/06/09 02:18:32;;;;;;;1.38;0.77;;;10.00;99.90;;;;;;4944918;28;20059;-68
2023/06/09 02:20:59;;;;;;;1.48;0.70;;;10.00;99.90;;;;;;4942294;28;20078;-67
2023/06/09 02:23:26;;;;;;;3.05;0.75;;;10.10;99.90;;;;;;4937523;28;20059;-63
2023/06/09 02:25:53;;;;;;;1.45;1.00;;;10.10;99.90;;;;;;4942427;28;20055;-62
2023/06/09 02:28:19;;;;;;;4.35;0.90;;;10.10;99.90;;;;;;4946120;28;20051;-69
2023/06/09 02:30:46;;;;;;;1.10;1.00;;;10.10;99.90;;;;;;4945093;28;20067;-64
2023/06/09 02:33:18;;;;;;;0.98;0.52;;;10.10;99.90;;;;;;4940208;28;20039;-63
2023/06/09 02:35:45;;;;;;;1.88;0.50;;;10.10;99.90;;;;;;4944407;28;20055;-72
2023/06/09 02:38:12;;;;;;;0.98;0.88;;;10.10;99.90;;;;;;4953565;28;20090;-66
2023/06/09 02:40:43;;;;;;;1.30;0.63;;;10.10;99.90;;;;;;4939688;28;20055;-61
2023/06/09 02:43:11;;;;;;;0.77;0.77;;;10.10;99.90;;;;;;4949611;28;20066;-74
2023/06/09 02:45:38;;;;;;;1.20;0.50;;;10.10;99.90;;;;;;4945531;28;20102;-62
2023/06/09 02:48:06;;;;;;;1.45;0.73;;;10.10;99.90;;;;;;4958118;28;20055;-63
2023/06/09 02:50:33;;;;;;;0.60;0.60;;;10.10;99.90;;;;;;4938950;28;20597;-64
2023/06/09 02:53:03;;;;;;;1.15;1.05;;;10.10;99.90;;;;;;4943471;28;20135;-66
2023/06/09 02:55:32;;;;;;;2.10;0.60;;;10.20;99.90;;;;;;4944223;28;20067;-64
2023/06/09 02:57:59;;;;;;;1.20;0.70;;;10.20;99.90;;;;;;4947576;28;20063;-66
2023/06/09 03:00:28;;;;;;;0.90;0.52;;;10.20;99.90;;;;;;4940861;28;20058;-67
2023/06/09 03:02:57;;;;;;;0.85;0.73;;;10.20;99.90;;;;;;4955277;28;20063;-69
2023/06/09 03:05:27;;;;;;;1.55;1.25;;;10.30;99.90;;;;;;4956173;28;20146;-69
2023/06/09 03:07:55;;;;;;;3.08;1.20;;;10.30;99.90;;;;;;4939371;28;20847;-65
2023/06/09 03:10:23;;;;;;;0.82;0.45;;;10.30;99.90;;;;;;4941460;28;20062;-67
2023/06/09 03:12:50;;;;;;;0.98;0.80;;;10.30;99.90;;;;;;4934363;28;20058;-62
2023/06/09 03:15:18;;;;;;;0.60;0.45;;;10.40;99.90;;;;;;4968718;28;20063;-62
2023/06/09 03:17:47;;;;;;;1.88;1.23;;;10.40;99.90;;;;;;4935671;28;20399;-67
2023/06/09 03:20:16;;;;;;;1.20;0.90;;;10.40;99.90;;;;;;4938908;28;20119;-62
2023/06/09 03:22:45;;;;;;;2.03;0.43;;;10.50;99.90;;;;;;4942498;28;20133;-66
2023/06/09 03:25:13;;;;;;;1.33;0.70;;;10.50;99.90;;;;;;4944879;28;20544;-64
2023/06/09 03:27:39;;;;;;;1.02;0.55;;;10.50;99.90;;;;;;4948785;28;20694;-63
2023/06/09 03:30:07;;;;;;;1.58;0.88;;;10.60;99.90;;;;;;4954103;28;20061;-68
2023/06/09 03:32:35;;;;;;;2.22;0.50;;;10.60;99.90;;;;;;4943196;28;20071;-63
2023/06/09 03:35:03;;;;;;;2.35;1.10;;;10.60;99.90;;;;;;4932135;28;20082;-63
2023/06/09 03:37:30;;;;;;;0.50;0.50;;;10.70;99.90;;;;;;4960373;28;20051;-74
2023/06/09 03:39:58;;;;;;;0.85;0.60;;;10.70;99.90;;;;;;4950156;28;20062;-67
2023/06/09 03:42:27;;;;;;;0.70;0.52;;;10.70;99.90;;;;;;4941909;28;20556;-71
2023/06/09 03:44:58;;;;;;;1.25;0.60;;;10.70;99.90;;;;;;4953477;28;20422;-69
2023/06/09 03:47:27;;;;;;;2.53;1.20;;;10.80;99.90;;;;;;4955234;28;20051;-68
2023/06/09 03:49:54;;;;;;;1.40;0.90;;;10.80;99.90;;;;;;4940395;28;20143;-62
2023/06/09 03:52:24;;;;;;;0.73;0.73;;;10.90;99.90;;;;;;4944942;28;20055;-62
2023/06/09 03:54:52;;;;;;;1.15;0.68;;;10.90;99.90;;;;;;4939426;28;20492;-62
2023/06/09 03:57:20;;;;;;;1.40;0.50;;;11.00;99.90;;;;;;4947821;28;20051;-64
2023/06/09 03:59:47;;;;;;;2.72;0.75;;;11.00;99.90;;;;;;4941982;28;20055;-78
2023/06/09 04:02:14;;;;;;;1.92;1.00;;;11.10;99.90;;;;;;4950679;28;20495;-64
2023/06/09 04:04:41;;;;;;;0.85;0.55;;;11.10;99.90;;;;;;4941949;28;20134;-65
2023/06/09 04:07:08;;;;;;;1.20;0.57;;;11.10;99.90;;;;;;4934622;28;20047;-64
2023/06/09 04:09:36;;;;;;;2.47;0.50;;;11.10;99.90;;;;;;4948586;28;20134;-62
2023/06/09 04:12:03;;;;;;;1.10;0.47;;;11.20;99.90;;;;;;4938562;28;20056;-61
2023/06/09 04:14:30;;;;;;;4.57;2.05;;;11.20;99.90;;;;;;4956339;28;20066;-64
2023/06/09 04:16:58;;;;;;;2.15;1.15;;;11.30;99.90;;;;;;4933951;28;20488;-70
2023/06/09 04:19:25;;;;;;;0.65;0.55;;;11.40;99.90;;;;;;4948525;28;20101;-65
2023/06/09 04:21:53;;;;;;;2.13;0.68;;;11.40;99.90;;;;;;4943997;28;20059;-71
2023/06/09 04:24:20;;;;;;;1.02;0.60;;;11.50;99.90;;;;;;4947202;28;20062;-71
2023/06/09 04:26:49;;;;;;;0.83;0.60;;;11.50;99.90;;;;;;4933626;28;20074;-63
2023/06/09 04:29:17;;;;;;;1.85;0.90;;;11.60;99.90;;;;;;4947278;28;20043;-67
2023/06/09 04:31:45;;;;;;;2.92;0.90;;;11.60;99.90;;;;;;4942300;28;20063;-67
2023/06/09 04:34:12;;;;;;;2.05;0.85;;;11.70;99.90;;;;;;4941760;28;20161;-67
2023/06/09 04:36:45;;;;;;;1.45;0.57;;;11.70;99.90;;;;;;4938240;28;20074;-62
2023/06/09 04:39:13;;;;;;;0.88;0.50;;;11.70;99.90;;;;;;4948075;28;20079;-61
2023/06/09 04:41:42;;;;;;;3.65;0.73;;;11.80;99.90;;;;;;4935141;28;20067;-71
2023/06/09 04:44:09;;;;;;;4.53;1.13;;;11.80;99.90;;;;;;4941128;28;20831;-63
2023/06/09 04:46:41;;;;;;;1.00;0.80;;;11.90;99.90;;;;;;4939605;28;20035;-69
2023/06/09 04:49:13;;;;;;;1.83;0.90;;;11.90;99.90;;;;;;4942044;28;20129;-69
2023/06/09 04:51:46;;;;;;;5.65;0.75;;;12.00;99.90;;;;;;4941194;28;20074;-64
2023/06/09 04:54:25;;;;;;;1.55;0.77;;;12.00;99.90;;;;;;4937112;28;20055;-72
2023/06/09 04:56:53;;;;;;;1.73;0.80;;;12.10;99.90;;;;;;4950872;28;20770;-66
2023/06/09 04:59:28;;;;;;;3.75;0.70;;;12.20;99.90;;;;;;4948415;28;20509;-63
2023/06/09 05:01:56;;;;;;;2.50;0.70;;;12.20;99.90;;;;;;4950562;28;20520;-62
2023/06/09 05:04:23;;;;;;;3.45;0.63;;;12.20;99.90;;;;;;4954095;28;20059;-64
2023/06/09 05:06:51;;;;;;;1.17;0.70;;;12.30;99.90;;;;;;4953986;28;20063;-62
2023/06/09 05:09:18;;;;;;;2.10;0.70;;;12.40;99.90;;;;;;4939778;28;20047;-66
2023/06/09 05:11:45;;;;;;;1.45;0.80;;;12.40;99.90;;;;;;4936368;28;20058;-72
2023/06/09 05:14:12;;;;;;;1.58;0.90;;;12.40;99.90;;;;;;4955216;28;20103;-62
2023/06/09 05:16:40;;;;;;;3.63;0.80;;;12.50;99.90;;;;;;4950668;28;20062;-68
2023/06/09 05:19:07;;;;;;;2.67;0.95;;;12.60;99.90;;;;;;4937425;28;20087;-66
2023/06/09 05:21:34;;;;;;;1.02;0.60;;;12.70;99.90;;;;;;4933076;28;20420;-70
2023/06/09 05:24:01;;;;;;;1.00;0.68;;;12.70;99.90;;;;;;4931053;28;20094;-67
2023/06/09 05:26:29;;;;;;;4.05;0.95;;;12.80;99.90;;;;;;4937517;28;20059;-67
2023/06/09 05:28:56;;;;;;;1.35;1.00;;;12.80;99.90;;;;;;4953729;28;20054;-64
2023/06/09 05:31:23;;;;;;;1.10;0.77;;;12.90;99.90;;;;;;4939543;28;21133;-61
2023/06/09 05:33:51;;;;;;;1.75;0.77;;;12.90;99.90;;;;;;4938744;28;20058;-66
2023/06/09 05:36:18;;;;;;;2.58;1.00;;;13.00;99.90;;;;;;4930311;28;20972;-66
2023/06/09 05:38:50;;;;;;;1.80;0.90;;;13.10;99.60;;;;;;4949579;28;20051;-65
2023/06/09 05:41:16;;;;;;;3.45;1.23;;;13.10;99.90;;;;;;4932135;28;20060;-62
2023/06/09 05:43:44;;;;;;;4.38;1.00;;;13.20;99.90;;;;;;4933722;28;20055;-64
2023/06/09 05:46:11;;;;;;;2.88;1.27;;;13.30;99.90;;;;;;4934133;28;20078;-66
2023/06/09 05:48:38;;;;;;;3.60;1.58;;;13.30;99.60;;;;;;4936576;28;20149;-63
2023/06/09 05:51:05;;;;;;;1.17;0.80;;;13.30;99.10;;;;;;4932564;28;20070;-70
2023/06/09 05:53:33;;;;;;;3.00;0.90;;;13.40;99.50;;;;;;4937453;28;20117;-65
2023/06/09 05:56:02;;;;;;;2.80;1.73;;;13.40;98.90;;;;;;4937768;28;20047;-65
2023/06/09 05:58:33;;;;;;;2.30;1.33;;;13.50;98.90;;;;;;4931720;28;20553;-63
2023/06/09 06:01:03;;;;;;;5.07;1.02;;;13.60;99.20;;;;;;4931287;28;20695;-63
2023/06/09 06:03:32;;;;;;;1.63;1.10;;;13.60;98.70;;;;;;4934657;28;20048;-63
2023/06/09 06:06:00;;;;;;;1.57;0.90;;;13.70;98.90;;;;;;4935898;28;20058;-64
2023/06/09 06:08:27;;;;;;;3.55;2.10;;;13.80;98.80;;;;;;4937564;28;20301;-63
2023/06/09 06:10:53;;;;;;;1.90;0.93;;;13.80;98.50;;;;;;4938007;28;20047;-62
2023/06/09 06:13:20;;;;;;;1.05;0.85;;;13.90;98.30;;;;;;4939654;28;20150;-63
2023/06/09 06:15:47;;;;;;;6.82;1.20;;;13.90;98.20;;;;;;4940073;28;20143;-61
2023/06/09 06:18:14;;;;;;;2.72;1.23;;;14.00;97.30;;;;;;4950127;28;22158;-62
2023/06/09 06:20:41;;;;;;;3.33;1.45;;;14.10;98.00;;;;;;4942013;28;20050;-67
2023/06/09 06:23:08;;;;;;;2.15;1.95;;;14.10;98.00;;;;;;4934467;28;20082;-60
2023/06/09 06:25:41;;;;;;;3.40;1.83;;;14.20;98.10;;;;;;4940975;28;20581;-69
2023/06/09 06:28:10;;;;;;;5.65;2.10;;;14.30;98.00;;;;;;4939971;28;20047;-64
2023/06/09 06:30:37;;;;;;;2.50;1.33;;;14.50;97.70;;;;;;4944135;28;20362;-62
2023/06/09 06:33:04;;;;;;;4.20;1.52;;;14.50;97.00;;;;;;4939946;28;20074;-60
2023/06/09 06:35:31;;;;;;;3.53;2.03;;;14.60;97.10;;;;;;4939614;28;20059;-61
2023/06/09 06:37:58;;;;;;;3.05;1.38;;;14.70;97.30;;;;;;4936101;28;20129;-61
2023/06/09 06:40:26;;;;;;;3.67;1.92;;;14.70;97.50;;;;;;4940465;28;20082;-63
2023/06/09 06:42:53;;;;;;;3.42;1.88;;;14.70;97.10;;;;;;4937336;28;20094;-62
2023/06/09 06:45:26;;;;;;;9.05;3.63;;;14.70;96.20;;;;;;4941430;28;20088;-65
2023/06/09 06:47:54;;;;;;;5.40;2.55;;;14.70;96.10;;;;;;4937351;28;20055;-63
2023/06/09 06:50:21;;;;;;;4.40;1.35;;;14.70;96.40;;;;;;4942602;28;20052;-67
2023/06/09 06:52:51;;;;;;;4.40;1.42;;;14.70;96.50;;;;;;4937990;28;20063;-66
2023/06/09 06:55:18;;;;;;;3.35;1.92;;;14.80;96.80;;;;;;4945150;28;20555;-63
2023/06/09 06:57:46;;;;;;;6.80;3.10;;;14.80;97.10;;;;;;4937241;28;20107;-67
2023/06/09 07:00:16;;;;;;;3.03;1.95;;;14.90;97.10;;;;;;4943173;28;20043;-61
2023/06/09 07:02:46;;;;;;;3.17;1.98;;;15.00;96.50;;;;;;4940765;28;20066;-65
2023/06/09 07:05:15;;;;;;;4.93;2.33;;;15.00;96.50;;;;;;4936284;28;20071;-62
2023/06/09 07:07:46;;;;;;;4.38;1.92;;;15.10;97.10;;;;;;4940947;28;20055;-66
2023/06/09 07:10:14;;;;;;;4.43;2.60;;;15.10;97.00;;;;;;4939487;28;20459;-62
2023/06/09 07:12:41;;;;;;;7.15;2.13;;;15.20;96.70;;;;;;4935315;28;20052;-63
2023/06/09 07:15:09;;;;;;;4.13;2.95;;;15.30;96.60;;;;;;4938060;28;20047;-67
2023/06/09 07:17:35;;;;;;;3.03;2.72;;;15.30;96.90;;;;;;4935281;28;20059;-66
2023/06/09 07:20:03;;;;;;;3.85;2.03;;;15.30;96.60;;;;;;4933954;28;20119;-65
2023/06/09 07:22:33;;;;;;;3.50;1.73;;;15.30;96.60;;;;;;4938606;28;20535;-70
2023/06/09 07:25:01;;;;;;;3.42;2.30;;;15.40;96.30;;;;;;4937179;28;20520;-65
2023/06/09 07:27:28;;;;;;;7.57;2.30;;;15.40;95.50;;;;;;4936485;28;20153;-66
2023/06/09 07:29:55;;;;;;;3.63;1.60;;;15.40;95.90;;;;;;4932226;28;20075;-64
2023/06/09 07:32:22;;;;;;;5.95;2.42;;;15.50;95.40;;;;;;4942305;28;21936;-64
2023/06/09 07:34:50;;;;;;;3.88;1.42;;;15.50;95.10;;;;;;4939134;28;20058;-64
2023/06/09 07:37:17;;;;;;;3.90;1.38;;;15.50;95.10;;;;;;4939432;28;20053;-65
2023/06/09 07:39:44;;;;;;;2.95;1.83;;;15.60;94.60;;;;;;4938740;28;20059;-69
2023/06/09 07:42:11;;;;;;;3.90;2.55;;;15.70;94.10;;;;;;4937667;28;20055;-62
2023/06/09 07:44:39;;;;;;;2.28;2.05;;;15.80;94.00;;;;;;4937475;28;20063;-70
2023/06/09 07:47:07;;;;;;;3.25;2.20;;;15.80;93.70;;;;;;4936314;28;20051;-65
2023/06/09 07:49:34;;;;;;;4.38;1.98;;;15.90;93.60;;;;;;4934812;28;20634;-66
2023/06/09 07:52:03;;;;;;;3.60;2.10;;;16.00;93.70;;;;;;4934878;28;20083;-68
2023/06/09 07:54:46;;;;;;;3.35;1.63;;;16.10;93.30;;;;;;4933556;28;20179;-62
2023/06/09 07:57:13;;;;;;;2.40;2.20;;;16.00;93.20;;;;;;4940457;28;20055;-62
2023/06/09 07:59:40;;;;;;;1.98;1.75;;;16.10;93.40;;;;;;4936555;28;20079;-68
2023/06/09 08:02:07;;;;;;;2.72;1.67;;;16.20;93.20;;;;;;4938620;28;20103;-66
2023/06/09 08:04:34;;;;;;;4.13;2.28;;;16.20;93.00;;;;;;4939704;28;20184;-62
2023/06/09 08:07:01;;;;;;;4.20;2.03;;;16.30;92.90;;;;;;4932710;28;20048;-62
2023/06/09 08:09:28;;;;;;;4.43;2.45;;;16.40;92.60;;;;;;4953304;28;20117;-63
2023/06/09 08:11:55;;;;;;;3.85;1.88;;;16.40;92.00;;;;;;4939281;28;20134;-64
2023/06/09 08:14:22;;;;;;;1.85;1.67;;;16.40;92.60;;;;;;4937612;28;20631;-64
2023/06/09 08:16:50;;;;;;;2.00;1.15;;;16.50;92.30;;;;;;4936444;28;20090;-64
2023/06/09 08:19:17;;;;;;;2.67;1.33;;;16.50;91.80;;;;;;4942431;28;20094;-62
2023/06/09 08:21:44;;;;;;;5.07;2.03;;;16.50;91.90;;;;;;4934664;28;20056;-65
2023/06/09 08:24:11;;;;;;;2.35;2.15;;;16.40;91.50;;;;;;4937257;28;20060;-67
2023/06/09 08:26:40;;;;;;;2.85;1.70;;;16.50;91.40;;;;;;4934546;28;20130;-65
2023/06/09 08:29:07;;;;;;;3.50;2.22;;;16.40;90.80;;;;;;4938938;28;20405;-63
2023/06/09 08:31:37;;;;;;;4.82;1.58;;;16.40;91.20;;;;;;4935500;28;20596;-62
2023/06/09 08:34:04;;;;;;;2.10;1.88;;;16.40;91.30;;;;;;4952549;28;20051;-67
2023/06/09 08:36:31;;;;;;;2.75;1.27;;;16.40;91.10;;;;;;4941038;28;20491;-69
2023/06/09 08:38:58;;;;;;;3.80;2.45;;;16.50;91.00;;;;;;4938536;28;20054;-65
2023/06/09 08:41:32;;;;;;;5.63;1.35;;;16.50;91.20;;;;;;4937013;28;20489;-64
2023/06/09 08:43:59;;;;;;;4.05;1.52;;;16.70;91.30;;;;;;4938137;28;20047;-63
2023/06/09 08:46:32;;;;;;;1.73;1.25;;;16.80;90.50;;;;;;4937561;28;20083;-62
2023/06/09 08:49:00;;;;;;;2.47;1.10;;;16.70;90.20;;;;;;4935126;28;20091;-62
2023/06/09 08:51:28;;;;;;;3.97;1.83;;;16.70;90.60;;;;;;4935819;28;20583;-68
2023/06/09 08:53:56;;;;;;;2.20;1.35;;;16.80;90.50;;;;;;4936932;28;20063;-70
2023/06/09 08:56:23;;;;;;;1.33;1.10;;;16.90;90.30;;;;;;4938132;28;20043;-62
2023/06/09 08:58:50;;;;;;;2.72;1.30;;;17.00;89.90;;;;;;4931892;28;20051;-68
2023/06/09 09:01:18;;;;;;;1.58;1.35;;;17.10;88.70;;;;;;4936547;28;20167;-62
2023/06/09 09:03:50;;;;;;;1.60;1.30;;;17.20;89.20;;;;;;4936550;28;20142;-68
2023/06/09 09:06:17;;;;;;;1.55;1.45;;;17.30;87.90;;;;;;4937726;28;20047;-66
2023/06/09 09:08:44;;;;;;;1.38;1.05;;;17.30;87.80;;;;;;4933303;28;20055;-65
2023/06/09 09:11:12;;;;;;;2.40;1.33;;;17.40;88.10;;;;;;4939358;28;20561;-63
2023/06/09 09:13:42;;;;;;;1.42;1.08;;;17.60;87.20;;;;;;4934030;28;20071;-65
2023/06/09 09:16:19;;;;;;;1.40;0.73;;;17.70;86.20;;;;;;4933578;28;20493;-69
2023/06/09 09:18:47;;;;;;;2.92;0.90;;;17.80;86.10;;;;;;4933514;28;20516;-67
2023/06/09 09:21:22;;;;;;;4.03;0.80;;;17.80;84.70;;;;;;4939534;28;20083;-65
2023/06/09 09:23:57;;;;;;;3.60;2.03;;;17.80;84.70;;;;;;4931741;28;20055;-66
2023/06/09 09:26:29;;;;;;;2.00;0.93;;;17.90;84.60;;;;;;4939211;28;20051;-63
2023/06/09 09:29:05;;;;;;;1.17;1.05;;;18.10;83.60;;;;;;4937723;28;20374;-63
2023/06/09 09:31:55;;;;;;;1.55;0.80;;;18.20;83.60;;;;;;4936154;28;20063;-62
2023/06/09 09:34:26;;;;;;;3.90;0.88;;;18.20;83.80;;;;;;4931793;28;20061;-62
2023/06/09 09:36:56;;;;;;;2.78;0.77;;;18.30;84.40;;;;;;4935975;28;20063;-70
2023/06/09 09:39:23;;;;;;;2.05;1.63;;;18.30;82.50;;;;;;4929904;28;20460;-64
2023/06/09 09:42:03;;;;;;;1.20;0.65;;;18.50;82.00;;;;;;4940885;28;20067;-62
2023/06/09 09:44:41;;;;;;;0.90;0.57;;;18.50;82.30;;;;;;4942911;28;20059;-65
2023/06/09 09:47:14;;;;;;;1.50;1.27;;;18.60;79.70;;;;;;4938102;28;20880;-63
2023/06/09 09:50:00;;;;;;;3.10;0.60;;;18.60;78.60;;;;;;4937908;28;20079;-68
2023/06/09 09:52:30;;;;;;;6.82;1.40;;;18.60;80.50;;;;;;4937268;28;20548;-65
2023/06/09 09:55:04;;;;;;;3.22;0.50;;;18.70;80.00;;;;;;4935401;28;20584;-65
2023/06/09 09:57:33;;;;;;;0.77;0.60;;;18.80;79.50;;;;;;4937923;28;20067;-63
2023/06/09 10:00:12;;;;;;;0.57;0.45;;;18.70;81.10;;;;;;4947913;28;20580;-64
2023/06/09 10:02:45;;;;;;;0.63;0.47;;;18.80;79.30;;;;;;4940650;28;20067;-62
2023/06/09 10:05:16;;;;;;;2.30;0.57;;;18.90;79.30;;;;;;4934049;28;20055;-65
2023/06/09 10:07:46;;;;;;;0.43;0.35;;;18.90;79.50;;;;;;4936759;28;20039;-65
2023/06/09 10:10:13;;;;;;;0.30;0.30;;;19.00;79.90;;;;;;4939711;28;20075;-63
2023/06/09 10:12:41;;;;;;;1.75;0.60;;;19.10;79.90;;;;;;4933278;28;20080;-65
2023/06/09 10:15:09;;;;;;;0.40;0.40;;;19.20;79.10;;;;;;4933047;28;20054;-63
2023/06/09 10:17:40;;;;;;;1.38;0.40;;;19.20;79.50;;;;;;4947882;28;20493;-62
2023/06/09 10:20:09;;;;;;;4.20;1.35;;;19.10;79.30;;;;;;4943654;28;20059;-66
2023/06/09 10:22:36;;;;;;;1.90;1.00;;;19.10;76.90;;;;;;4935042;28;20051;-65
2023/06/09 10:25:04;;;;;;;1.48;0.50;;;19.00;76.60;;;;;;4948111;28;20549;-63
2023/06/09 10:27:32;;;;;;;0.65;0.35;;;19.00;76.60;;;;;;4936570;28;20051;-62
2023/06/09 10:30:01;;;;;;;0.75;0.52;;;19.00;77.40;;;;;;4935667;28;20427;-62
2023/06/09 10:32:31;;;;;;;3.92;0.45;;;18.90;77.20;;;;;;4941233;28;20550;-65
2023/06/09 10:34:59;;;;;;;3.60;0.57;;;19.00;79.10;;;;;;4940846;28;20061;-65
2023/06/09 10:37:27;;;;;;;4.10;1.00;;;19.00;78.90;;;;;;4940413;28;20078;-66
2023/06/09 10:40:03;;;;;;;2.25;1.08;;;19.00;79.00;;;;;;4942382;28;20075;-65
2023/06/09 10:42:54;;;;;;;0.95;0.57;;;19.00;79.30;;;;;;4942533;28;20047;-70
2023/06/09 10:45:21;;;;;;;0.93;0.52;;;18.90;77.10;;;;;;4933557;28;20051;-63
2023/06/09 10:47:50;;;;;;;0.30;0.30;;;19.00;76.60;;;;;;4936128;28;20047;-63
2023/06/09 10:50:22;;;;;;;0.80;0.35;;;19.00;76.80;;;;;;4940032;28;20766;-66
2023/06/09 10:52:53;;;;;;;0.85;0.60;;;19.00;78.70;;;;;;4936955;28;20035;-69
2023/06/09 10:55:22;;;;;;;0.30;0.25;;;19.10;76.80;;;;;;4937806;28;20134;-65
2023/06/09 10:57:51;;;;;;;1.25;0.50;;;19.20;76.80;;;;;;4940637;28;20142;-64
2023/06/09 11:00:19;;;;;;;1.90;0.50;;;19.30;76.50;;;;;;4938942;28;20106;-69
2023/06/09 11:02:47;;;;;;;3.10;0.60;;;19.20;78.00;;;;;;4938801;28;20057;-68
2023/06/09 11:05:15;;;;;;;3.40;1.17;;;19.10;77.00;;;;;;4932774;28;20083;-70
2023/06/09 11:07:46;;;;;;;1.52;0.70;;;19.10;82.80;;;;;;4936136;28;20062;-67
2023/06/09 11:10:13;;;;;;;3.28;0.85;;;18.70;91.10;;;;;;4935668;28;20055;-63
2023/06/09 11:12:46;;;;;;;3.80;0.93;;;18.30;92.70;;;;;;4937144;28;21888;-63
2023/06/09 11:15:17;;;;;;;1.17;0.90;;;18.00;92.60;;;;;;4935609;28;20055;-63
2023/06/09 11:17:45;;;;;;;4.05;1.58;;;17.80;93.10;;;;;;4936541;28;20709;-72
2023/06/09 11:20:17;;;;;;;1.13;0.70;;;17.80;91.50;;;;;;4936615;28;20470;-65
2023/06/09 11:22:44;;;;;;;1.65;0.80;;;17.80;92.50;;;;;;4936278;28;20416;-66
2023/06/09 11:25:17;;;;;;;3.53;1.00;;;17.60;93.70;;;;;;4937580;28;20048;-70
2023/06/09 11:27:54;;;;;;;4.30;1.45;;;17.40;94.80;;;;;;4941654;28;20054;-63
2023/06/09 11:30:23;;;;;;;4.90;1.15;;;17.20;95.10;;;;;;4937511;28;20110;-63
2023/06/09 11:33:03;;;;;;;1.52;0.70;;;17.30;93.50;;;;;;4951002;28;20142;-67
2023/06/09 11:35:30;;;;;;;4.60;1.15;;;17.60;93.80;;;;;;4934166;28;20063;-62
2023/06/09 11:38:03;;;;;;;6.03;1.10;;;17.40;94.30;;;;;;4935133;28;20145;-66
2023/06/09 11:40:31;;;;;;;23.27;2.03;;;17.20;94.80;;;;;;4941695;28;20050;-66
2023/06/09 11:42:58;;;;;;;3.40;1.55;;;17.20;94.70;;;;;;4941245;28;20082;-67
2023/06/09 11:45:30;;;;;;;1.45;1.08;;;16.90;95.50;;;;;;4940514;28;20063;-66
2023/06/09 11:47:59;;;;;;;4.38;1.30;;;16.80;95.40;;;;;;4933675;28;20055;-63
2023/06/09 11:50:43;;;;;;;3.77;1.07;;;16.70;95.90;;;;;;4909071;28;20047;-66
2023/06/09 11:53:18;;;;;;;5.28;1.52;;;16.50;96.50;;;;;;4916761;28;20336;-71
2023/06/09 11:55:46;;;;;;;3.97;0.73;;;16.40;96.70;;;;;;4935363;28;20047;-69
2023/06/09 11:58:16;;;;;;;3.40;0.82;;;16.20;96.80;;;;;;4939796;28;20051;-66
2023/06/09 12:00:45;;;;;;;3.97;1.77;;;16.20;96.40;;;;;;4938273;28;20047;-68
2023/06/09 12:03:16;;;;;;;2.45;0.80;;;16.20;96.60;;;;;;4942792;28;20490;-66
2023/06/09 12:05:52;;;;;;;3.00;1.67;;;16.10;96.50;;;;;;4934494;28;20138;-62
2023/06/09 12:08:20;;;;;;;3.25;1.20;;;16.10;97.10;;;;;;4941349;28;20057;-69
2023/06/09 12:10:47;;;;;;;2.38;1.38;;;16.00;98.00;;;;;;4937014;28;20165;-69
2023/06/09 12:13:14;;;;;;;4.07;1.80;;;16.00;97.10;;;;;;4935992;28;20138;-63
2023/06/09 12:15:45;;;;;;;6.03;1.20;;;16.00;97.90;;;;;;4935036;28;20078;-64
2023/06/09 12:18:12;;;;;;;5.05;1.10;;;15.90;97.60;;;;;;4939028;28;20700;-62
2023/06/09 12:20:41;;;;;;;5.65;1.23;;;16.10;96.60;;;;;;4937233;28;20460;-63
2023/06/09 12:23:12;;;;;;;3.63;1.15;;;16.20;97.20;;;;;;4936194;28;20066;-62
2023/06/09 12:25:47;;;;;;;2.47;1.77;;;16.30;96.60;;;;;;4934799;28;20051;-68
2023/06/09 12:28:29;;;;;;;8.73;1.33;;;16.30;96.00;;;;;;4935315;28;20060;-66
2023/06/09 12:31:10;;;;;;;3.15;1.05;;;16.20;96.20;;;;;;4935155;28;20078;-68
2023/06/09 12:33:38;;;;;;;2.92;1.40;;;16.00;97.50;;;;;;4936411;28;20055;-64
2023/06/09 12:36:10;;;;;;;3.92;0.88;;;16.10;98.00;;;;;;4933457;28;20742;-63
2023/06/09 12:38:45;;;;;;;4.10;1.00;;;16.00;97.50;;;;;;4937485;28;20059;-65
2023/06/09 12:41:14;;;;;;;3.47;0.85;;;15.90;97.70;;;;;;4937297;28;20067;-68
2023/06/09 12:43:56;;;;;;;1.23;1.00;;;15.90;97.00;;;;;;4940977;28;20082;-66
2023/06/09 12:46:35;;;;;;;2.58;1.10;;;15.90;97.70;;;;;;4935711;28;20130;-68
2023/06/09 12:49:06;;;;;;;2.42;1.42;;;15.90;97.50;;;;;;4939437;28;20106;-63
2023/06/09 12:51:43;;;;;;;2.70;0.82;;;15.90;98.40;;;;;;4937324;28;20173;-69
2023/06/09 12:54:13;;;;;;;2.25;0.82;;;15.90;97.70;;;;;;4941136;28;20070;-65
2023/06/09 12:56:40;;;;;;;3.95;1.08;;;16.20;97.00;;;;;;4937010;28;20135;-63
2023/06/09 12:59:08;;;;;;;2.95;0.70;;;16.20;97.20;;;;;;4931537;28;20885;-69
2023/06/09 13:01:36;;;;;;;2.45;1.13;;;16.10;98.00;;;;;;4940309;28;20205;-67